Time;durP1;ratioP1;P1;durP2;ratioP2;P2;SDS_P1;SDS_P2;PMS_P1;PMS_P2;Temp;Humidity;BMP_temperature;BMP_pressure;BME280_temperature;BME280_humidity;BME280_pressure;Samples;Min_cycle;Max_cycle;Signal;HPM_P1;HPM_P2
2021/12/04 00:00:38;;;;;;;31.23;18.70;;;0.40;99.90;;;;;;4960593;28;20128;-93
2021/12/04 00:03:04;;;;;;;33.97;19.98;;;0.30;99.90;;;;;;4960994;28;20271;-93
2021/12/04 00:05:30;;;;;;;32.95;19.75;;;0.30;99.90;;;;;;4975664;28;20046;-93
2021/12/04 00:07:57;;;;;;;33.50;19.92;;;0.30;99.90;;;;;;4941595;29;20031;-93
2021/12/04 00:10:27;;;;;;;31.35;19.33;;;0.30;99.90;;;;;;4941676;29;20106;-93
2021/12/04 00:12:53;;;;;;;28.48;18.27;;;0.20;99.90;;;;;;4941801;29;20024;-92
2021/12/04 00:15:19;;;;;;;32.75;19.83;;;0.20;99.90;;;;;;4941382;29;20034;-92
2021/12/04 00:17:45;;;;;;;35.17;20.13;;;0.20;99.90;;;;;;4941841;29;20035;-93
2021/12/04 00:20:11;;;;;;;29.77;18.73;;;0.20;99.90;;;;;;4941894;29;20470;-93
2021/12/04 00:22:37;;;;;;;35.17;20.40;;;0.20;99.90;;;;;;4941821;29;20043;-92
2021/12/04 00:25:07;;;;;;;32.08;19.02;;;0.20;99.90;;;;;;4941325;29;20122;-91
2021/12/04 00:27:33;;;;;;;35.92;20.58;;;0.20;99.90;;;;;;4941191;29;20441;-90
2021/12/04 00:29:59;;;;;;;38.53;21.20;;;0.10;99.90;;;;;;4941238;29;20027;-90
2021/12/04 00:32:40;;;;;;;32.17;18.80;;;0.00;99.90;;;;;;4941339;29;20390;-90
2021/12/04 00:49:13;;;;;;;34.55;19.17;;;-0.10;99.90;;;;;;4958012;29;20034;-93
2021/12/04 00:51:50;;;;;;;39.58;19.92;;;-0.10;99.90;;;;;;4940926;29;20026;-91
2021/12/04 00:54:17;;;;;;;35.85;20.02;;;-0.10;99.90;;;;;;4940828;29;20035;-91
2021/12/04 00:56:44;;;;;;;35.17;19.67;;;-0.10;99.90;;;;;;4942323;28;20052;-91
2021/12/04 00:59:12;;;;;;;36.85;20.95;;;-0.20;99.90;;;;;;4962003;28;20023;-91
2021/12/04 01:01:39;;;;;;;39.45;20.77;;;-0.20;99.90;;;;;;4961483;28;20050;-91
2021/12/04 01:04:09;;;;;;;39.47;20.58;;;-0.20;99.90;;;;;;4959967;28;20058;-91
2021/12/04 01:06:35;;;;;;;43.33;24.08;;;-0.30;99.90;;;;;;4960152;28;20453;-93
2021/12/04 01:09:01;;;;;;;38.78;22.23;;;-0.20;99.90;;;;;;4959516;28;20082;-93
2021/12/04 01:11:26;;;;;;;46.67;25.35;;;-0.30;99.90;;;;;;4958759;28;20027;-94
2021/12/04 01:13:52;;;;;;;43.33;24.73;;;-0.30;99.90;;;;;;4959564;28;20023;-92
2021/12/04 01:16:18;;;;;;;44.20;24.05;;;-0.40;99.90;;;;;;4959485;28;20496;-92
2021/12/04 01:18:44;;;;;;;43.10;24.60;;;-0.40;99.90;;;;;;4958959;28;20031;-92
2021/12/04 01:21:11;;;;;;;39.67;22.00;;;-0.40;99.90;;;;;;4964787;28;20034;-92
2021/12/04 01:23:37;;;;;;;38.28;22.50;;;-0.40;99.90;;;;;;4960000;28;20492;-92
2021/12/04 01:26:03;;;;;;;41.90;24.02;;;-0.50;99.90;;;;;;4959662;28;20031;-92
2021/12/04 01:28:28;;;;;;;38.28;22.85;;;-0.50;99.90;;;;;;4959381;28;20027;-92
2021/12/04 01:30:54;;;;;;;43.35;23.95;;;-0.50;99.90;;;;;;4960689;28;20023;-91
2021/12/04 01:33:20;;;;;;;43.60;24.50;;;-0.60;99.90;;;;;;4959823;28;20019;-92
2021/12/04 01:35:46;;;;;;;41.75;23.60;;;-0.60;99.90;;;;;;4959231;28;20473;-91
2021/12/04 01:38:12;;;;;;;46.90;25.52;;;-0.60;99.90;;;;;;4958439;28;20033;-91
2021/12/04 01:40:38;;;;;;;47.55;25.65;;;-0.60;99.90;;;;;;4959043;28;20031;-91
2021/12/04 01:43:05;;;;;;;41.55;24.25;;;-0.60;99.90;;;;;;4963876;28;20027;-91
2021/12/04 01:45:31;;;;;;;45.83;24.13;;;-0.60;99.90;;;;;;4959039;28;20159;-91
2021/12/04 01:48:01;;;;;;;43.47;24.13;;;-0.60;99.90;;;;;;4959034;28;20117;-91
2021/12/04 01:50:28;;;;;;;44.13;23.58;;;-0.60;99.90;;;;;;4959228;28;20066;-91
2021/12/04 01:52:59;;;;;;;40.33;22.45;;;-0.70;99.90;;;;;;4958940;28;20038;-91
2021/12/04 01:55:26;;;;;;;42.67;24.15;;;-0.70;99.90;;;;;;4958866;28;20029;-91
2021/12/04 01:57:52;;;;;;;43.58;23.60;;;-0.60;99.90;;;;;;4944988;29;20027;-91
2021/12/04 02:00:19;;;;;;;45.80;23.70;;;-0.60;99.90;;;;;;4939684;29;20098;-91
2021/12/04 02:02:44;;;;;;;44.40;24.15;;;-0.60;99.90;;;;;;4940662;29;20035;-90
2021/12/04 02:05:10;;;;;;;44.55;23.92;;;-0.60;99.90;;;;;;4942214;29;20499;-90
2021/12/04 02:07:36;;;;;;;45.15;24.13;;;-0.60;99.90;;;;;;4939485;29;20441;-90
2021/12/04 02:10:05;;;;;;;43.70;23.58;;;-0.70;99.90;;;;;;4939646;29;20098;-91
2021/12/04 02:12:30;;;;;;;43.15;24.33;;;-0.70;99.90;;;;;;4939842;29;20586;-91
2021/12/04 02:14:56;;;;;;;41.17;22.27;;;-0.80;99.90;;;;;;4939509;29;20089;-91
2021/12/04 02:17:22;;;;;;;38.75;21.98;;;-0.80;99.90;;;;;;4956974;28;20037;-90
2021/12/04 02:19:48;;;;;;;37.13;21.73;;;-0.90;99.90;;;;;;4958634;28;20031;-90
2021/12/04 02:22:14;;;;;;;38.00;21.75;;;-0.90;99.90;;;;;;4958330;28;20026;-91
2021/12/04 02:24:40;;;;;;;38.70;22.10;;;-0.90;99.90;;;;;;4960220;28;20034;-90
2021/12/04 02:27:06;;;;;;;34.92;19.75;;;-0.90;99.90;;;;;;4959742;28;20038;-90
2021/12/04 02:29:32;;;;;;;38.78;21.52;;;-0.90;99.90;;;;;;4958375;28;20023;-90
2021/12/04 02:32:00;;;;;;;36.15;20.65;;;-0.90;99.90;;;;;;4958664;28;20109;-90
2021/12/04 02:34:28;;;;;;;38.45;22.27;;;-0.90;99.90;;;;;;4956714;28;20031;-90
2021/12/04 02:36:56;;;;;;;39.50;22.40;;;-0.90;99.90;;;;;;4939366;29;20079;-91
2021/12/04 02:39:32;;;;;;;37.17;21.52;;;-0.90;99.90;;;;;;4939323;29;20023;-90
2021/12/04 02:41:59;;;;;;;40.65;21.15;;;-0.90;99.90;;;;;;4940335;29;20092;-91
2021/12/04 02:44:41;;;;;;;40.42;22.42;;;-0.90;99.90;;;;;;4939015;29;20051;-90
2021/12/04 02:47:08;;;;;;;45.33;23.38;;;-0.90;99.90;;;;;;4943344;29;20031;-90
2021/12/04 02:49:34;;;;;;;38.28;21.50;;;-0.90;99.90;;;;;;4939244;29;20193;-90
2021/12/04 02:52:05;;;;;;;39.55;21.75;;;-0.90;99.90;;;;;;4956186;29;20047;-90
2021/12/04 02:54:32;;;;;;;36.42;20.40;;;-0.90;99.90;;;;;;4939321;29;20038;-90
2021/12/04 02:56:57;;;;;;;36.50;21.45;;;-1.00;99.90;;;;;;4939283;29;20478;-90
2021/12/04 02:59:24;;;;;;;39.58;20.65;;;-1.00;99.90;;;;;;4939136;29;20024;-91
2021/12/04 03:01:54;;;;;;;39.53;20.33;;;-0.90;99.90;;;;;;4939026;29;20482;-92
2021/12/04 03:04:22;;;;;;;40.67;22.63;;;-0.90;99.90;;;;;;4938797;28;20363;-92
2021/12/04 03:06:48;;;;;;;39.78;22.45;;;-1.00;99.90;;;;;;4939024;29;20019;-92
2021/12/04 03:09:15;;;;;;;39.08;22.15;;;-1.00;99.90;;;;;;4939201;29;20492;-92
2021/12/04 03:11:41;;;;;;;39.72;21.88;;;-1.10;99.90;;;;;;4972595;28;20482;-92
2021/12/04 03:14:07;;;;;;;39.70;21.38;;;-1.10;99.90;;;;;;4958153;28;20474;-92
2021/12/04 03:16:34;;;;;;;41.17;21.77;;;-1.10;99.90;;;;;;4975388;28;20030;-92
2021/12/04 03:19:00;;;;;;;39.53;21.88;;;-1.20;99.90;;;;;;4957834;28;20027;-93
2021/12/04 03:21:27;;;;;;;34.22;19.75;;;-1.20;99.90;;;;;;4958045;28;20186;-90
2021/12/04 03:24:13;;;;;;;38.50;21.05;;;-1.20;99.90;;;;;;4957951;28;20501;-90
2021/12/04 03:26:40;;;;;;;38.47;20.77;;;-1.20;99.90;;;;;;4958051;28;20027;-90
2021/12/04 03:29:13;;;;;;;34.95;18.67;;;-1.20;99.90;;;;;;4955181;29;20027;-90
2021/12/04 03:31:52;;;;;;;34.92;19.42;;;-1.10;99.90;;;;;;4939591;29;20023;-89
2021/12/04 03:42:55;;;;;;;48.90;25.00;;;-1.10;99.90;;;;;;4959649;29;20034;-92
2021/12/04 03:45:21;;;;;;;44.97;22.55;;;-1.10;99.90;;;;;;4942015;29;20490;-91
2021/12/04 03:47:49;;;;;;;45.22;22.33;;;-1.10;99.90;;;;;;4942500;28;20031;-91
2021/12/04 03:50:16;;;;;;;40.90;21.73;;;-1.00;99.90;;;;;;4960946;28;20030;-91
2021/12/04 03:52:42;;;;;;;42.13;21.77;;;-1.00;99.90;;;;;;4961473;28;20057;-91
2021/12/04 03:55:09;;;;;;;44.60;23.52;;;-1.00;99.90;;;;;;4961014;28;20023;-91
2021/12/04 03:57:36;;;;;;;45.60;23.30;;;-1.00;99.90;;;;;;4961155;28;20560;-91
2021/12/04 04:00:04;;;;;;;51.88;24.85;;;-1.10;99.90;;;;;;4960987;28;20401;-88
2021/12/04 04:02:29;;;;;;;53.50;26.52;;;-1.10;99.90;;;;;;4960898;28;20027;-89
2021/12/04 04:04:55;;;;;;;44.22;24.42;;;-1.20;99.90;;;;;;4978107;28;20031;-89
2021/12/04 04:07:22;;;;;;;45.55;24.48;;;-1.30;99.90;;;;;;4958018;28;20039;-89
2021/12/04 04:09:48;;;;;;;44.70;24.23;;;-1.30;99.90;;;;;;4960622;28;20111;-89
2021/12/04 04:12:14;;;;;;;42.22;23.13;;;-1.40;99.90;;;;;;4960930;28;20082;-89
2021/12/04 04:14:40;;;;;;;44.97;23.90;;;-1.30;99.90;;;;;;4960811;28;20028;-89
2021/12/04 04:17:05;;;;;;;42.92;24.13;;;-1.40;99.90;;;;;;4960785;28;20378;-89
2021/12/04 04:19:31;;;;;;;49.67;25.20;;;-1.40;99.90;;;;;;4960768;28;20033;-88
2021/12/04 04:21:58;;;;;;;44.03;24.00;;;-1.40;99.90;;;;;;4960815;28;20432;-89
2021/12/04 04:24:26;;;;;;;43.30;23.33;;;-1.50;99.90;;;;;;4960636;28;20023;-89
2021/12/04 04:26:52;;;;;;;51.35;25.50;;;-1.40;99.90;;;;;;4951474;29;20034;-89
2021/12/04 04:29:18;;;;;;;48.63;25.23;;;-1.40;99.90;;;;;;4941339;29;20382;-89
2021/12/04 04:31:47;;;;;;;46.63;23.13;;;-1.40;99.90;;;;;;4942304;28;20025;-89
2021/12/04 04:34:34;;;;;;;42.47;22.63;;;-1.40;99.90;;;;;;4958765;29;20019;-88
2021/12/04 04:37:42;;;;;;;50.25;25.58;;;-1.30;99.90;;;;;;4941047;29;20032;-91
2021/12/04 04:57:28;;;;;;;46.92;23.08;;;-1.40;99.90;;;;;;4954896;29;20032;-91
2021/12/04 05:12:56;;;;;;;42.95;21.85;;;-1.20;99.90;;;;;;4958016;29;20019;-91
2021/12/04 05:21:06;;;;;;;47.17;24.65;;;-1.30;99.90;;;;;;4957277;29;20020;-91
2021/12/04 05:23:44;;;;;;;52.17;26.63;;;-1.30;99.90;;;;;;4940187;29;20031;-90
2021/12/04 05:26:24;;;;;;;74.90;36.33;;;-1.40;99.90;;;;;;4940445;29;20043;-92
2021/12/04 05:28:51;;;;;;;94.55;46.45;;;-1.30;99.90;;;;;;4940021;29;20038;-92
2021/12/04 05:31:17;;;;;;;84.55;42.65;;;-1.30;99.90;;;;;;4940010;29;20082;-92
2021/12/04 05:33:43;;;;;;;131.35;62.97;;;-1.30;99.90;;;;;;4940752;29;20343;-91
2021/12/04 05:36:10;;;;;;;80.35;40.40;;;-1.30;99.90;;;;;;4956906;29;20027;-92
2021/12/04 05:38:37;;;;;;;66.68;32.78;;;-1.30;99.90;;;;;;4940023;29;20479;-92
2021/12/04 05:41:03;;;;;;;58.30;29.55;;;-1.30;99.90;;;;;;4939965;29;20035;-92
2021/12/04 05:43:30;;;;;;;55.60;28.75;;;-1.30;99.90;;;;;;4939799;29;20134;-92
2021/12/04 05:46:36;;;;;;;57.38;28.45;;;-1.30;99.90;;;;;;4940079;29;20126;-92
2021/12/04 05:49:01;;;;;;;49.83;24.95;;;-1.30;99.90;;;;;;4954543;29;20035;-92
2021/12/04 05:54:04;;;;;;;51.65;26.20;;;-1.40;99.90;;;;;;4956959;29;20027;-93
2021/12/04 05:56:32;;;;;;;49.88;26.08;;;-1.40;99.90;;;;;;4939871;29;20106;-92
2021/12/04 05:58:59;;;;;;;42.95;23.60;;;-1.40;99.90;;;;;;4939548;29;20047;-92
2021/12/04 06:01:27;;;;;;;52.50;26.65;;;-1.30;99.90;;;;;;4939941;29;20027;-92
2021/12/04 06:03:53;;;;;;;104.38;52.78;;;-1.30;99.90;;;;;;4939840;29;20126;-93
2021/12/04 06:06:20;;;;;;;62.97;32.35;;;-1.30;99.90;;;;;;4939853;29;20118;-92
2021/12/04 06:08:46;;;;;;;64.47;32.83;;;-1.30;99.90;;;;;;4939622;29;20027;-93
2021/12/04 06:11:12;;;;;;;66.25;33.45;;;-1.30;99.90;;;;;;4939638;29;20046;-93
2021/12/04 06:13:38;;;;;;;57.35;29.00;;;-1.40;99.90;;;;;;4940615;29;20024;-93
2021/12/04 06:16:05;;;;;;;56.28;29.52;;;-1.30;99.90;;;;;;4939953;29;20038;-93
2021/12/04 06:18:32;;;;;;;67.15;31.50;;;-1.30;99.90;;;;;;4939462;29;20030;-92
2021/12/04 06:23:42;;;;;;;60.85;29.25;;;-1.30;99.90;;;;;;4956932;29;20110;-91
2021/12/04 06:26:09;;;;;;;67.03;31.60;;;-1.30;99.90;;;;;;4939238;29;20062;-91
2021/12/04 06:28:35;;;;;;;59.90;29.05;;;-1.30;99.90;;;;;;4939288;29;20482;-91
2021/12/04 06:31:00;;;;;;;59.33;29.88;;;-1.30;99.90;;;;;;4939320;29;20051;-91
2021/12/04 06:33:27;;;;;;;66.80;33.58;;;-1.20;99.90;;;;;;4939166;29;20051;-90
2021/12/04 06:35:53;;;;;;;74.50;37.40;;;-1.20;99.90;;;;;;4939144;29;20023;-90
2021/12/04 06:38:19;;;;;;;65.90;33.35;;;-1.20;99.90;;;;;;4953632;28;20082;-93
2021/12/04 06:40:48;;;;;;;64.93;32.42;;;-1.20;99.90;;;;;;4958468;28;20027;-91
2021/12/04 06:43:15;;;;;;;55.42;29.38;;;-1.20;99.90;;;;;;4943172;29;20035;-91
2021/12/04 06:45:43;;;;;;;60.92;31.65;;;-1.10;99.90;;;;;;4939111;29;20030;-91
2021/12/04 06:48:13;;;;;;;81.53;39.35;;;-1.10;99.90;;;;;;4939139;29;20034;-92
2021/12/04 06:50:43;;;;;;;79.97;42.05;;;-1.10;99.90;;;;;;4939329;29;20023;-92
2021/12/04 06:55:43;;;;;;;69.80;34.45;;;-1.10;99.90;;;;;;4956443;29;20087;-91
2021/12/04 06:58:08;;;;;;;59.58;31.25;;;-1.10;99.90;;;;;;4939123;29;20405;-90
2021/12/04 07:00:35;;;;;;;49.05;27.08;;;-1.10;99.90;;;;;;4939091;29;20135;-91
2021/12/04 07:03:00;;;;;;;50.20;25.73;;;-1.00;99.90;;;;;;4939275;29;20063;-90
2021/12/04 07:05:26;;;;;;;59.78;31.33;;;-1.00;99.90;;;;;;4939009;29;20074;-91
2021/12/04 07:07:52;;;;;;;55.60;28.45;;;-0.90;99.90;;;;;;4938810;29;20138;-91
2021/12/04 07:10:18;;;;;;;62.83;31.23;;;-0.80;99.90;;;;;;4940469;29;20046;-91
2021/12/04 07:12:43;;;;;;;53.00;27.90;;;-0.90;99.90;;;;;;4942616;29;20082;-94
2021/12/04 07:15:11;;;;;;;64.38;29.98;;;-1.00;99.90;;;;;;4943023;29;20031;-92
2021/12/04 07:17:37;;;;;;;52.38;28.40;;;-0.90;99.90;;;;;;4942553;29;20027;-93
2021/12/04 07:20:05;;;;;;;51.17;28.00;;;-0.90;99.90;;;;;;4942433;29;20367;-92
2021/12/04 07:22:32;;;;;;;48.03;25.73;;;-0.90;99.90;;;;;;4942450;29;20027;-92
2021/12/04 07:24:58;;;;;;;51.08;25.85;;;-0.90;99.90;;;;;;4943429;29;20126;-92
2021/12/04 07:27:24;;;;;;;58.47;27.77;;;-0.90;99.90;;;;;;4942577;29;20114;-92
2021/12/04 07:29:50;;;;;;;50.75;26.20;;;-0.80;99.90;;;;;;4942258;29;20023;-91
2021/12/04 07:32:15;;;;;;;50.38;27.50;;;-0.80;99.90;;;;;;4942518;29;20378;-92
2021/12/04 07:34:44;;;;;;;50.13;26.17;;;-0.80;99.90;;;;;;4942376;29;20020;-92
2021/12/04 07:37:10;;;;;;;49.75;26.77;;;-0.80;99.90;;;;;;4942298;29;20050;-91
2021/12/04 07:39:36;;;;;;;56.10;28.73;;;-0.70;99.90;;;;;;4942017;29;20027;-91
2021/12/04 07:42:01;;;;;;;55.15;30.17;;;-0.70;99.90;;;;;;4952663;28;20023;-91
2021/12/04 07:44:27;;;;;;;56.60;30.92;;;-0.70;99.90;;;;;;4946413;28;20071;-90
2021/12/04 07:46:53;;;;;;;87.00;39.17;;;-0.70;99.90;;;;;;4961255;28;20050;-90
2021/12/04 07:49:19;;;;;;;98.07;43.40;;;-0.60;99.90;;;;;;4949737;29;20027;-90
2021/12/04 07:51:44;;;;;;;115.53;50.83;;;-0.60;99.90;;;;;;4958903;29;20023;-90
2021/12/04 07:54:10;;;;;;;83.80;40.33;;;-0.60;99.90;;;;;;4958550;28;20027;-90
2021/12/04 07:56:36;;;;;;;68.28;32.63;;;-0.50;99.90;;;;;;4946796;29;20427;-90
2021/12/04 07:59:02;;;;;;;54.72;27.02;;;-0.60;99.90;;;;;;4941719;29;20078;-91
2021/12/04 08:01:28;;;;;;;51.17;27.35;;;-0.50;99.90;;;;;;4957856;28;20038;-91
2021/12/04 08:03:54;;;;;;;75.65;35.15;;;-0.40;99.90;;;;;;4961037;28;20517;-91
2021/12/04 08:06:20;;;;;;;71.97;32.00;;;-0.40;99.90;;;;;;4961156;28;20041;-89
2021/12/04 08:08:46;;;;;;;72.53;31.70;;;-0.40;99.90;;;;;;4960974;28;20070;-89
2021/12/04 08:11:12;;;;;;;69.45;29.95;;;-0.40;99.90;;;;;;4960752;28;20035;-91
2021/12/04 08:13:38;;;;;;;63.20;28.90;;;-0.30;99.90;;;;;;4960924;28;20023;-90
2021/12/04 08:16:04;;;;;;;64.40;31.85;;;-0.40;99.90;;;;;;4960518;28;20432;-89
2021/12/04 08:18:30;;;;;;;70.30;34.58;;;-0.30;99.90;;;;;;4960178;28;20046;-90
2021/12/04 08:20:55;;;;;;;78.57;36.75;;;-0.30;99.90;;;;;;4960270;28;20026;-89
2021/12/04 08:23:21;;;;;;;69.18;34.35;;;-0.30;99.90;;;;;;4960453;28;20371;-90
2021/12/04 08:25:48;;;;;;;59.63;30.88;;;-0.30;99.90;;;;;;4960302;28;20026;-89
2021/12/04 08:28:14;;;;;;;53.10;26.92;;;-0.30;99.90;;;;;;4944741;28;20030;-89
2021/12/04 08:30:40;;;;;;;49.83;27.17;;;-0.20;99.90;;;;;;4958338;28;20473;-89
2021/12/04 08:33:08;;;;;;;51.30;28.20;;;-0.20;99.90;;;;;;4960109;28;20050;-89
2021/12/04 08:35:39;;;;;;;81.88;43.72;;;-0.10;99.90;;;;;;4958192;28;20532;-90
2021/12/04 08:38:06;;;;;;;59.55;32.78;;;0.00;99.90;;;;;;4960096;28;20414;-90
2021/12/04 08:40:33;;;;;;;58.97;31.95;;;0.00;99.90;;;;;;4960096;28;20031;-89
2021/12/04 08:42:59;;;;;;;54.20;28.92;;;0.10;99.90;;;;;;4977068;28;20030;-91
2021/12/04 08:45:26;;;;;;;58.78;31.30;;;0.10;99.90;;;;;;4961790;28;20502;-91
2021/12/04 08:47:53;;;;;;;54.83;29.98;;;0.20;99.90;;;;;;4967772;28;20030;-89
2021/12/04 08:50:22;;;;;;;53.45;28.10;;;0.20;99.90;;;;;;4960914;28;20367;-91
2021/12/04 08:52:48;;;;;;;52.22;28.58;;;0.30;99.90;;;;;;4960542;28;20035;-88
2021/12/04 08:55:15;;;;;;;55.75;30.50;;;0.40;99.90;;;;;;4954712;29;20389;-92
2021/12/04 08:57:41;;;;;;;56.45;30.42;;;0.40;99.90;;;;;;4942032;29;20067;-93
2021/12/04 09:00:12;;;;;;;54.38;29.30;;;0.50;99.90;;;;;;4941788;29;20478;-91
2021/12/04 09:02:39;;;;;;;50.25;27.30;;;0.60;99.90;;;;;;4943539;29;20043;-92
2021/12/04 09:05:14;;;;;;;55.80;31.48;;;0.60;99.90;;;;;;4947316;29;20045;-96
2021/12/04 09:07:43;;;;;;;56.15;30.33;;;0.70;99.90;;;;;;4963962;29;20102;-91
2021/12/04 09:10:10;;;;;;;54.95;31.33;;;0.70;99.90;;;;;;4944370;29;20030;-93
2021/12/04 09:12:37;;;;;;;49.70;28.67;;;0.80;99.90;;;;;;4944845;29;20493;-93
2021/12/04 09:15:09;;;;;;;58.28;33.03;;;0.90;99.90;;;;;;4944533;29;20023;-94
2021/12/04 09:17:35;;;;;;;56.00;32.17;;;1.00;99.90;;;;;;4926991;29;20057;-91
2021/12/04 09:20:01;;;;;;;69.93;38.58;;;1.00;99.90;;;;;;4957846;28;20027;-91
2021/12/04 09:22:32;;;;;;;61.13;34.90;;;1.10;99.90;;;;;;4959931;28;20038;-89
2021/12/04 09:25:00;;;;;;;61.83;34.08;;;1.10;99.90;;;;;;4960060;28;20066;-89
2021/12/04 10:13:09;;;;;;;46.95;26.95;;;1.80;99.90;;;;;;4997698;28;20432;-94
2021/12/04 10:34:57;;;;;;;44.50;25.73;;;2.00;99.90;;;;;;4995860;28;20022;-94
2021/12/04 10:37:26;;;;;;;41.47;25.13;;;2.00;99.90;;;;;;4977747;28;20202;-92
2021/12/04 10:39:54;;;;;;;41.22;23.88;;;2.00;99.90;;;;;;4977565;28;20027;-91
2021/12/04 10:42:30;;;;;;;40.03;23.55;;;1.90;99.90;;;;;;4978072;28;20029;-92
2021/12/04 10:44:57;;;;;;;36.78;21.45;;;1.90;99.90;;;;;;4980828;28;20049;-93
2021/12/04 10:47:25;;;;;;;39.78;23.17;;;1.90;99.90;;;;;;4950104;28;20033;-91
2021/12/04 10:55:40;;;;;;;41.67;23.48;;;1.80;99.90;;;;;;4998520;28;20481;-89
2021/12/04 15:35:06;;;;;;;101.97;45.90;;;-1.50;99.90;;;;;;5111746;27;20430;-88
2021/12/04 15:37:40;;;;;;;116.88;49.58;;;-1.60;99.90;;;;;;5091117;28;20115;-86
2021/12/04 15:40:34;;;;;;;130.10;57.03;;;-1.60;99.90;;;;;;5090131;28;20025;-86
2021/12/04 15:45:55;;;;;;;201.07;84.30;;;-1.60;99.90;;;;;;5112207;28;20024;-91
2021/12/04 15:51:15;;;;;;;206.60;91.38;;;-1.50;99.90;;;;;;5117042;28;20012;-94
2021/12/04 15:53:57;;;;;;;237.02;103.70;;;-1.50;99.90;;;;;;5110994;28;20024;-94
2021/12/04 15:56:47;;;;;;;230.32;104.60;;;-1.50;99.90;;;;;;5111288;28;20028;-93
2021/12/04 15:59:16;;;;;;;229.80;107.28;;;-1.40;99.90;;;;;;5111214;28;20020;-94
2021/12/04 16:05:13;;;;;;;216.07;101.32;;;-1.40;99.90;;;;;;5112650;28;20107;-90
2021/12/04 16:07:39;;;;;;;201.40;92.82;;;-1.30;99.90;;;;;;5110491;28;20030;-90
2021/12/04 16:10:16;;;;;;;223.02;100.07;;;-1.40;99.90;;;;;;5102157;28;20488;-90
2021/12/04 16:12:45;;;;;;;184.68;90.50;;;-1.30;99.90;;;;;;5090027;28;20032;-90
2021/12/04 16:15:14;;;;;;;192.70;93.47;;;-1.30;99.90;;;;;;5089935;28;20103;-90
2021/12/04 16:17:40;;;;;;;182.77;87.40;;;-1.40;99.90;;;;;;5089978;28;20028;-90
2021/12/04 16:20:11;;;;;;;187.75;90.90;;;-1.40;99.90;;;;;;5089715;28;20070;-90
2021/12/04 16:22:37;;;;;;;154.43;74.40;;;-1.30;99.90;;;;;;5089840;28;20016;-91
2021/12/04 16:25:14;;;;;;;180.50;87.68;;;-1.40;99.90;;;;;;5089779;28;20020;-90
2021/12/04 16:28:05;;;;;;;181.32;87.78;;;-1.40;99.90;;;;;;5089734;28;20024;-90
2021/12/04 16:30:37;;;;;;;177.90;88.05;;;-1.30;99.90;;;;;;5089924;28;20489;-90
2021/12/04 16:33:27;;;;;;;184.02;88.90;;;-1.40;99.90;;;;;;5089292;28;20109;-90
2021/12/04 16:36:06;;;;;;;165.20;81.43;;;-1.40;99.90;;;;;;5089707;28;20025;-90
2021/12/04 16:38:33;;;;;;;195.35;91.75;;;-1.40;99.90;;;;;;5089571;28;20074;-88
2021/12/04 16:41:05;;;;;;;179.38;88.03;;;-1.40;99.90;;;;;;5089552;28;20462;-90
2021/12/04 16:43:34;;;;;;;168.50;82.65;;;-1.40;99.90;;;;;;5089337;28;20111;-90
2021/12/04 16:46:10;;;;;;;184.07;88.22;;;-1.50;99.90;;;;;;5077507;28;20490;-91
2021/12/04 16:48:42;;;;;;;175.32;83.43;;;-1.50;99.90;;;;;;5075819;28;20032;-89
2021/12/04 16:59:03;;;;;;;175.85;83.63;;;-1.50;99.90;;;;;;5076975;28;20066;-90
2021/12/04 17:01:30;;;;;;;165.13;79.05;;;-1.50;99.90;;;;;;5075367;28;20027;-90
2021/12/04 17:03:56;;;;;;;171.50;83.20;;;-1.50;99.90;;;;;;5077170;28;20029;-93
2021/12/04 17:06:22;;;;;;;184.85;87.03;;;-1.50;99.90;;;;;;5077863;28;20028;-90
2021/12/04 17:08:48;;;;;;;178.10;85.50;;;-1.50;99.90;;;;;;5077088;28;20360;-91
2021/12/04 17:11:14;;;;;;;173.60;83.50;;;-1.50;99.90;;;;;;5092243;28;20474;-89
2021/12/04 17:13:40;;;;;;;164.25;80.80;;;-1.50;99.90;;;;;;5074870;28;20549;-90
2021/12/04 17:16:06;;;;;;;156.55;78.82;;;-1.50;99.90;;;;;;5083093;28;20055;-89
2021/12/04 17:18:36;;;;;;;158.23;77.38;;;-1.50;99.90;;;;;;5085555;28;20016;-90
2021/12/04 17:21:03;;;;;;;161.63;81.85;;;-1.50;99.90;;;;;;5088114;28;20028;-90
2021/12/04 17:23:29;;;;;;;185.35;94.78;;;-1.50;99.90;;;;;;5078538;28;20063;-85
2021/12/04 17:25:57;;;;;;;183.00;93.13;;;-1.60;99.90;;;;;;5075796;28;20024;-85
2021/12/04 17:28:26;;;;;;;183.77;92.57;;;-1.60;99.90;;;;;;5074287;28;20127;-85
2021/12/04 17:30:52;;;;;;;186.88;90.45;;;-1.60;99.90;;;;;;5091080;28;20055;-85
2021/12/04 17:33:18;;;;;;;206.65;101.35;;;-1.60;99.90;;;;;;5073922;28;20079;-85
2021/12/04 17:35:44;;;;;;;168.93;85.30;;;-1.60;99.90;;;;;;5074100;28;20467;-85
2021/12/04 17:38:10;;;;;;;182.73;90.47;;;-1.60;99.90;;;;;;5075048;28;20021;-83
2021/12/04 17:40:36;;;;;;;175.73;88.47;;;-1.60;99.90;;;;;;5074161;28;20387;-83
2021/12/04 17:43:03;;;;;;;170.57;86.07;;;-1.60;99.90;;;;;;5074033;28;20024;-82
2021/12/04 17:45:29;;;;;;;183.77;94.05;;;-1.60;99.90;;;;;;5086936;28;20049;-83
2021/12/04 17:47:56;;;;;;;199.05;98.75;;;-1.60;99.90;;;;;;5093750;28;20063;-83
2021/12/04 17:50:27;;;;;;;209.20;103.63;;;-1.60;99.90;;;;;;5093811;28;20055;-85
2021/12/04 17:52:58;;;;;;;205.13;98.93;;;-1.70;99.90;;;;;;5093645;28;20072;-85
2021/12/04 17:55:26;;;;;;;185.68;93.70;;;-1.70;99.90;;;;;;5094047;28;20024;-83
2021/12/04 17:57:53;;;;;;;195.23;97.63;;;-1.70;99.90;;;;;;5083291;28;20048;-85
2021/12/04 18:00:46;;;;;;;196.45;99.07;;;-1.70;99.90;;;;;;5085175;28;20031;-85
2021/12/04 18:03:12;;;;;;;203.75;97.75;;;-1.80;99.90;;;;;;5085055;28;20032;-85
2021/12/04 18:05:40;;;;;;;197.32;94.43;;;-1.80;99.90;;;;;;5074782;28;20031;-86
2021/12/04 18:08:09;;;;;;;196.75;98.57;;;-1.80;99.90;;;;;;5076159;28;20115;-86
2021/12/04 18:10:36;;;;;;;204.63;98.32;;;-1.90;99.90;;;;;;5082069;28;20024;-86
2021/12/04 18:13:06;;;;;;;183.23;89.38;;;-1.90;99.90;;;;;;5087582;28;20432;-87
2021/12/04 18:15:42;;;;;;;183.57;89.00;;;-1.80;99.90;;;;;;5091657;28;20108;-86
2021/12/04 18:18:09;;;;;;;203.60;98.80;;;-1.80;99.90;;;;;;5073546;28;20482;-87
2021/12/04 18:20:36;;;;;;;205.05;103.43;;;-1.80;99.90;;;;;;5074595;28;20074;-87
2021/12/04 18:23:02;;;;;;;216.68;102.05;;;-1.80;99.90;;;;;;5074253;28;20033;-86
2021/12/04 18:25:28;;;;;;;206.10;96.60;;;-1.90;99.90;;;;;;5074409;28;20028;-86
2021/12/04 18:27:55;;;;;;;192.98;95.43;;;-1.90;99.90;;;;;;5072027;28;20031;-86
2021/12/04 18:30:24;;;;;;;189.65;93.53;;;-1.90;99.90;;;;;;5073138;28;20074;-87
2021/12/04 18:32:50;;;;;;;182.73;90.05;;;-1.90;99.90;;;;;;5075210;28;20493;-86
2021/12/04 18:35:18;;;;;;;189.93;91.78;;;-1.90;99.90;;;;;;5074228;28;20020;-86
2021/12/04 18:37:44;;;;;;;192.95;90.20;;;-1.90;99.90;;;;;;5074270;28;20021;-87
2021/12/04 18:40:14;;;;;;;193.77;89.45;;;-1.90;99.90;;;;;;5073014;28;20020;-87
2021/12/04 18:42:40;;;;;;;171.23;82.50;;;-1.90;99.90;;;;;;5074189;28;20024;-87
2021/12/04 18:45:08;;;;;;;200.02;89.78;;;-1.90;99.90;;;;;;5072625;28;20249;-87
2021/12/04 18:47:34;;;;;;;195.20;88.25;;;-1.90;99.90;;;;;;5072794;28;20375;-87
2021/12/04 18:50:00;;;;;;;254.88;116.18;;;-1.90;99.90;;;;;;5076329;28;20028;-87
2021/12/04 18:52:26;;;;;;;195.15;91.88;;;-1.90;99.90;;;;;;5092766;28;20466;-87
2021/12/04 18:54:52;;;;;;;174.63;84.45;;;-1.90;99.90;;;;;;5094398;28;20154;-87
2021/12/04 18:57:18;;;;;;;155.52;77.50;;;-2.00;99.90;;;;;;5093412;28;20489;-87
2021/12/04 18:59:45;;;;;;;167.48;79.03;;;-2.00;99.90;;;;;;5093123;28;20021;-88
2021/12/04 19:02:17;;;;;;;169.82;79.72;;;-2.00;99.90;;;;;;5092977;28;20473;-88
2021/12/04 19:04:43;;;;;;;167.98;79.40;;;-2.00;99.90;;;;;;5092992;28;20024;-87
2021/12/04 19:07:08;;;;;;;170.05;75.28;;;-2.00;99.90;;;;;;5094194;28;20028;-87
2021/12/04 19:09:34;;;;;;;179.70;80.22;;;-2.00;99.90;;;;;;5092602;28;20069;-88
2021/12/04 19:12:00;;;;;;;186.00;87.78;;;-2.00;99.90;;;;;;5093348;28;20078;-88
2021/12/04 19:14:29;;;;;;;162.98;79.50;;;-2.00;99.90;;;;;;5092677;28;20436;-87
2021/12/04 19:16:55;;;;;;;193.50;87.05;;;-2.00;99.90;;;;;;5092240;28;20028;-85
2021/12/04 19:19:21;;;;;;;166.43;77.88;;;-2.10;99.90;;;;;;5094199;28;20366;-85
2021/12/04 19:21:47;;;;;;;172.88;80.68;;;-2.10;99.90;;;;;;5092776;28;20050;-87
2021/12/04 19:24:13;;;;;;;173.00;83.10;;;-2.10;99.90;;;;;;5093897;28;20020;-86
2021/12/04 19:26:39;;;;;;;161.18;78.28;;;-2.10;99.90;;;;;;5092545;28;20489;-87
2021/12/04 19:29:06;;;;;;;161.40;78.88;;;-2.10;99.90;;;;;;5072785;28;20032;-87
2021/12/04 19:31:39;;;;;;;175.05;78.57;;;-2.10;99.90;;;;;;5072800;28;20029;-85
2021/12/04 19:48:16;;;;;;;224.57;105.75;;;-2.10;99.90;;;;;;5070979;28;20077;-85
2021/12/04 19:50:49;;;;;;;200.30;91.43;;;-2.20;99.90;;;;;;5094310;28;20031;-87
2021/12/04 19:53:26;;;;;;;421.23;211.20;;;-2.20;99.90;;;;;;5092268;28;20119;-85
2021/12/04 19:55:56;;;;;;;232.45;106.05;;;-2.20;99.90;;;;;;5081944;28;20025;-85